Time,TemperatureF,DewpointF,PressureIn,WindDirection,WindDirectionDegrees,WindSpeedMPH,WindSpeedGustMPH,Humidity,HourlyPrecipIn,Conditions,Clouds,dailyrainin,SolarRadiationWatts/m^2,SoftwareType,DateUTC
2013-01-12 00:02:00,14.0,7.0,-100.00,ENE,57,4.0,7.0,72,0.00,,,0.01,0.000000,,2013-01-12 07:02:00,
2013-01-12 00:12:00,14.0,7.0,-100.00,ENE,57,4.0,7.0,72,0.00,,,0.01,0.000000,,2013-01-12 07:12:00,
2013-01-12 00:22:00,14.0,7.0,-100.00,ENE,57,4.0,7.0,72,0.00,,,0.01,0.000000,,2013-01-12 07:22:00,
2013-01-12 00:32:00,14.0,7.0,-100.00,ENE,57,4.0,7.0,72,0.00,,,0.01,0.000000,,2013-01-12 07:32:00,
2013-01-12 00:42:00,13.0,6.0,-100.00,WNW,301,1.0,7.0,74,0.00,,,0.01,0.000000,,2013-01-12 07:42:00,
2013-01-12 01:02:00,13.0,6.0,-100.00,WNW,301,1.0,7.0,74,0.00,,,0.01,0.000000,,2013-01-12 08:02:00,
2013-01-12 01:11:00,13.0,6.0,-100.00,WNW,301,1.0,7.0,74,0.00,,,0.01,0.000000,,2013-01-12 08:11:00,
2013-01-12 01:22:00,13.0,6.0,-100.00,WNW,301,1.0,7.0,74,0.00,,,0.01,0.000000,,2013-01-12 08:22:00,
2013-01-12 01:32:00,13.0,6.0,-100.00,WNW,301,1.0,7.0,74,0.00,,,0.01,0.000000,,2013-01-12 08:32:00,
2013-01-12 01:42:00,13.0,5.0,-100.00,North,355,1.0,8.0,70,0.00,,,0.01,0.000000,,2013-01-12 08:42:00,
2013-01-12 02:02:00,13.0,5.0,-100.00,North,355,1.0,8.0,70,0.00,,,0.01,0.000000,,2013-01-12 09:02:00,
2013-01-12 02:12:00,13.0,5.0,-100.00,North,355,1.0,8.0,70,0.00,,,0.01,0.000000,,2013-01-12 09:12:00,
2013-01-12 02:22:00,13.0,5.0,-100.00,North,355,1.0,8.0,70,0.00,,,0.01,0.000000,,2013-01-12 09:22:00,
2013-01-12 02:32:00,13.0,5.0,-100.00,North,355,1.0,8.0,70,0.00,,,0.01,0.000000,,2013-01-12 09:32:00,
2013-01-12 02:42:00,11.0,5.0,-100.00,South,187,2.0,8.0,76,0.00,,,-99.99,0.000000,,2013-01-12 09:42:00,
2013-01-12 03:02:00,11.0,5.0,-100.00,South,187,2.0,8.0,76,0.00,,,-99.99,0.000000,,2013-01-12 10:02:00,
2013-01-12 03:11:00,11.0,5.0,-100.00,South,187,2.0,8.0,76,0.00,,,-99.99,0.000000,,2013-01-12 10:11:00,
2013-01-12 03:22:00,11.0,5.0,-100.00,South,187,2.0,8.0,76,0.00,,,-99.99,0.000000,,2013-01-12 10:22:00,
2013-01-12 03:32:00,11.0,5.0,-100.00,South,187,2.0,8.0,76,0.00,,,-99.99,0.000000,,2013-01-12 10:32:00,
2013-01-12 03:42:00,12.0,7.0,-100.00,NNW,343,2.0,9.0,79,0.00,,,0.01,0.000000,,2013-01-12 10:42:00,
2013-01-12 04:02:00,12.0,7.0,-100.00,NNW,343,2.0,9.0,79,0.00,,,0.01,0.000000,,2013-01-12 11:02:00,
2013-01-12 04:12:00,12.0,7.0,-100.00,NNW,343,2.0,9.0,79,0.00,,,0.01,0.000000,,2013-01-12 11:12:00,
2013-01-12 04:22:00,12.0,7.0,-100.00,NNW,343,2.0,9.0,79,0.00,,,0.01,0.000000,,2013-01-12 11:22:00,
2013-01-12 04:32:00,12.0,7.0,-100.00,NNW,343,2.0,9.0,79,0.00,,,0.01,0.000000,,2013-01-12 11:32:00,
2013-01-12 04:42:00,11.0,6.0,-100.00,North,355,3.0,9.0,79,0.00,,,0.01,0.000000,,2013-01-12 11:42:00,
2013-01-12 05:02:00,11.0,6.0,-100.00,North,355,3.0,9.0,79,0.00,,,0.01,0.000000,,2013-01-12 12:02:00,
2013-01-12 05:12:00,11.0,6.0,-100.00,North,355,3.0,9.0,79,0.00,,,0.01,0.000000,,2013-01-12 12:12:00,
2013-01-12 05:22:00,11.0,6.0,-100.00,North,355,3.0,9.0,79,0.00,,,0.01,0.000000,,2013-01-12 12:22:00,
2013-01-12 05:32:00,11.0,6.0,-100.00,North,355,3.0,9.0,79,0.00,,,0.01,0.000000,,2013-01-12 12:32:00,
2013-01-12 05:42:00,10.0,5.0,-100.00,NNW,332,0.0,6.0,78,0.00,,,0.01,0.000000,,2013-01-12 12:42:00,
2013-01-12 06:02:00,10.0,5.0,-100.00,NNW,332,0.0,6.0,78,0.00,,,0.01,0.000000,,2013-01-12 13:02:00,
2013-01-12 06:12:00,10.0,5.0,-100.00,NNW,332,0.0,6.0,78,0.00,,,0.01,0.000000,,2013-01-12 13:12:00,
2013-01-12 06:22:00,10.0,5.0,-100.00,NNW,332,0.0,6.0,78,0.00,,,0.01,0.000000,,2013-01-12 13:22:00,
2013-01-12 06:32:00,10.0,5.0,-100.00,NNW,332,0.0,6.0,78,0.00,,,0.01,0.000000,,2013-01-12 13:32:00,
2013-01-12 06:42:00,9.0,4.0,-100.00,South,187,3.0,6.0,79,0.00,,,0.01,0.000000,,2013-01-12 13:42:00,
2013-01-12 07:02:00,9.0,4.0,-100.00,South,187,3.0,6.0,79,0.00,,,0.01,0.000000,,2013-01-12 14:02:00,
2013-01-12 07:12:00,9.0,4.0,-100.00,South,187,3.0,6.0,79,0.00,,,0.01,0.000000,,2013-01-12 14:12:00,
2013-01-12 07:22:00,9.0,4.0,-100.00,South,187,3.0,6.0,79,0.00,,,0.01,0.000000,,2013-01-12 14:22:00,
2013-01-12 07:32:00,9.0,4.0,-100.00,South,187,3.0,6.0,79,0.00,,,0.01,0.000000,,2013-01-12 14:32:00,
2013-01-12 07:42:00,10.0,5.0,-100.00,West,280,0.0,8.0,78,0.00,,,0.01,0.000000,,2013-01-12 14:42:00,
2013-01-12 08:03:00,10.0,5.0,-100.00,West,280,0.0,8.0,78,0.00,,,0.01,0.000000,,2013-01-12 15:03:00,
2013-01-12 08:12:00,10.0,5.0,-100.00,West,280,0.0,8.0,78,0.00,,,0.01,0.000000,,2013-01-12 15:12:00,
2013-01-12 08:22:00,10.0,5.0,-100.00,West,280,0.0,8.0,78,0.00,,,0.01,0.000000,,2013-01-12 15:22:00,
2013-01-12 08:33:00,10.0,5.0,-100.00,West,280,0.0,8.0,78,0.00,,,0.01,0.000000,,2013-01-12 15:33:00,
2013-01-12 08:42:00,9.0,3.0,-100.00,SSW,210,1.0,5.0,77,0.00,,,0.01,2.000000,,2013-01-12 15:42:00,
2013-01-12 09:03:00,9.0,3.0,-100.00,SSW,210,1.0,5.0,77,0.00,,,0.01,2.000000,,2013-01-12 16:03:00,
2013-01-12 09:12:00,9.0,3.0,-100.00,SSW,210,1.0,5.0,77,0.00,,,0.01,2.000000,,2013-01-12 16:12:00,
2013-01-12 09:22:00,9.0,3.0,-100.00,SSW,210,1.0,5.0,77,0.00,,,0.01,2.000000,,2013-01-12 16:22:00,
2013-01-12 09:32:00,9.0,3.0,-100.00,SSW,210,1.0,5.0,77,0.00,,,0.01,2.000000,,2013-01-12 16:32:00,
2013-01-12 10:02:00,15.0,4.0,-100.00,South,186,1.0,5.0,62,0.00,,,0.01,32.000000,,2013-01-12 17:02:00,
2013-01-12 11:02:00,20.0,6.0,-100.00,SW,221,1.0,5.0,55,-99.99,,,0.01,60.000000,,2013-01-12 18:02:00,
2013-01-12 11:42:00,23.0,8.0,-100.00,WSW,251,2.0,7.0,51,-99.99,,,0.01,74.000000,,2013-01-12 18:42:00,
2013-01-12 12:03:00,23.0,8.0,-100.00,WSW,251,2.0,7.0,51,-99.99,,,0.01,74.000000,,2013-01-12 19:03:00,
2013-01-12 12:22:00,23.0,8.0,-100.00,WSW,251,2.0,7.0,51,-99.99,,,0.01,74.000000,,2013-01-12 19:22:00,
2013-01-12 12:32:00,23.0,8.0,-100.00,WSW,251,2.0,7.0,51,-99.99,,,0.01,74.000000,,2013-01-12 19:32:00,
2013-01-12 12:42:00,24.0,8.0,-100.00,East,84,4.0,8.0,50,0.00,,,0.01,81.000000,,2013-01-12 19:42:00,
2013-01-12 13:02:00,24.0,8.0,-100.00,East,84,4.0,8.0,50,0.00,,,0.01,81.000000,,2013-01-12 20:02:00,
2013-01-12 13:32:00,24.0,8.0,-100.00,East,84,4.0,8.0,50,0.00,,,0.01,81.000000,,2013-01-12 20:32:00,
2013-01-12 14:02:00,26.0,9.0,-100.00,East,80,5.0,10.0,48,0.07,,,0.07,81.000000,,2013-01-12 21:02:00,
2013-01-12 14:12:00,26.0,9.0,-100.00,East,80,5.0,10.0,48,0.07,,,0.07,81.000000,,2013-01-12 21:12:00,
2013-01-12 14:22:00,26.0,9.0,-100.00,East,80,5.0,10.0,48,0.07,,,0.07,81.000000,,2013-01-12 21:22:00,
2013-01-12 14:42:00,23.0,11.0,-100.00,NW,324,4.0,10.0,59,-99.99,,,0.10,118.000000,,2013-01-12 21:42:00,
2013-01-12 15:02:00,23.0,11.0,-100.00,NW,324,4.0,10.0,59,-99.99,,,0.10,118.000000,,2013-01-12 22:02:00,
2013-01-12 15:12:00,23.0,11.0,-100.00,NW,324,4.0,10.0,59,-99.99,,,0.10,118.000000,,2013-01-12 22:12:00,
2013-01-12 15:22:00,23.0,11.0,-100.00,NW,324,4.0,10.0,59,-99.99,,,0.10,118.000000,,2013-01-12 22:22:00,
2013-01-12 15:32:00,23.0,11.0,-100.00,NW,324,4.0,10.0,59,-99.99,,,0.10,118.000000,,2013-01-12 22:32:00,
2013-01-12 15:42:00,20.0,9.0,-100.00,West,280,1.0,6.0,62,0.00,,,0.10,151.000000,,2013-01-12 22:42:00,
2013-01-12 16:02:00,20.0,9.0,-100.00,West,280,1.0,6.0,62,0.00,,,0.10,151.000000,,2013-01-12 23:02:00,
2013-01-12 16:12:00,20.0,9.0,-100.00,West,280,1.0,6.0,62,0.00,,,0.10,151.000000,,2013-01-12 23:12:00,
2013-01-12 16:22:00,20.0,9.0,-100.00,West,280,1.0,6.0,62,0.00,,,0.10,151.000000,,2013-01-12 23:22:00,
2013-01-12 16:32:00,20.0,9.0,-100.00,West,280,1.0,6.0,62,0.00,,,0.10,151.000000,,2013-01-12 23:32:00,
2013-01-12 16:42:00,18.0,6.0,-100.00,East,87,1.0,4.0,60,0.00,,,0.10,154.000000,,2013-01-12 23:42:00,
2013-01-12 17:03:00,18.0,6.0,-100.00,East,87,1.0,4.0,60,0.00,,,0.10,154.000000,,2013-01-13 00:03:00,
2013-01-12 17:12:00,18.0,6.0,-100.00,East,87,1.0,4.0,60,0.00,,,0.10,154.000000,,2013-01-13 00:12:00,
2013-01-12 17:22:00,18.0,6.0,-100.00,East,87,1.0,4.0,60,0.00,,,0.10,154.000000,,2013-01-13 00:22:00,
2013-01-12 17:32:00,18.0,6.0,-100.00,East,87,1.0,4.0,60,0.00,,,0.10,154.000000,,2013-01-13 00:32:00,
2013-01-12 17:42:00,10.0,3.0,-100.00,NNW,328,2.0,7.0,71,0.00,,,0.10,50.000000,,2013-01-13 00:42:00,
2013-01-12 18:12:00,10.0,3.0,-100.00,NNW,328,2.0,7.0,71,0.00,,,0.10,50.000000,,2013-01-13 01:12:00,
2013-01-12 18:22:00,10.0,3.0,-100.00,NNW,328,2.0,7.0,71,0.00,,,0.10,50.000000,,2013-01-13 01:22:00,
2013-01-12 18:32:00,10.0,3.0,-100.00,NNW,328,2.0,7.0,71,0.00,,,0.10,50.000000,,2013-01-13 01:32:00,
2013-01-12 18:42:00,10.0,2.0,-100.00,North,356,0.0,3.0,70,0.00,,,0.10,0.000000,,2013-01-13 01:42:00,
2013-01-12 19:02:00,10.0,2.0,-100.00,North,356,0.0,3.0,70,0.00,,,0.10,0.000000,,2013-01-13 02:02:00,
2013-01-12 19:12:00,10.0,2.0,-100.00,North,356,0.0,3.0,70,0.00,,,0.10,0.000000,,2013-01-13 02:12:00,
2013-01-12 19:22:00,10.0,2.0,-100.00,North,356,0.0,3.0,70,0.00,,,0.10,0.000000,,2013-01-13 02:22:00,
2013-01-12 19:32:00,10.0,2.0,-100.00,North,356,0.0,3.0,70,0.00,,,0.10,0.000000,,2013-01-13 02:32:00,
2013-01-12 19:42:00,10.0,3.0,-100.00,NNE,22,0.0,2.0,71,0.00,,,0.10,0.000000,,2013-01-13 02:42:00,
2013-01-12 20:02:00,10.0,3.0,-100.00,NNE,22,0.0,2.0,71,0.00,,,0.10,0.000000,,2013-01-13 03:02:00,
2013-01-12 20:12:00,10.0,3.0,-100.00,NNE,22,0.0,2.0,71,0.00,,,0.10,0.000000,,2013-01-13 03:12:00,
2013-01-12 20:22:00,10.0,3.0,-100.00,NNE,22,0.0,2.0,71,0.00,,,0.10,0.000000,,2013-01-13 03:22:00,
2013-01-12 20:32:00,10.0,3.0,-100.00,NNE,22,0.0,2.0,71,0.00,,,0.10,0.000000,,2013-01-13 03:32:00,
2013-01-12 20:42:00,11.0,4.0,-100.00,NNW,345,1.0,3.0,72,0.00,,,0.10,0.000000,,2013-01-13 03:42:00,
2013-01-12 21:02:00,11.0,4.0,-100.00,NNW,345,1.0,3.0,72,0.00,,,0.10,0.000000,,2013-01-13 04:02:00,
2013-01-12 21:12:00,11.0,4.0,-100.00,NNW,345,1.0,3.0,72,0.00,,,0.10,0.000000,,2013-01-13 04:12:00,
2013-01-12 21:22:00,11.0,4.0,-100.00,NNW,345,1.0,3.0,72,0.00,,,0.10,0.000000,,2013-01-13 04:22:00,
2013-01-12 21:32:00,11.0,4.0,-100.00,NNW,345,1.0,3.0,72,0.00,,,0.10,0.000000,,2013-01-13 04:32:00,
2013-01-12 21:42:00,13.0,8.0,-100.00,NNW,348,2.0,3.0,79,0.00,,,0.10,0.000000,,2013-01-13 04:42:00,
2013-01-12 22:03:00,13.0,8.0,-100.00,NNW,348,2.0,3.0,79,0.00,,,0.10,0.000000,,2013-01-13 05:03:00,
2013-01-12 22:12:00,13.0,8.0,-100.00,NNW,348,2.0,3.0,79,0.00,,,0.10,0.000000,,2013-01-13 05:12:00,
2013-01-12 22:22:00,13.0,8.0,-100.00,NNW,348,2.0,3.0,79,0.00,,,0.10,0.000000,,2013-01-13 05:22:00,
2013-01-12 22:32:00,13.0,8.0,-100.00,NNW,348,2.0,3.0,79,0.00,,,0.10,0.000000,,2013-01-13 05:32:00,
2013-01-12 22:42:00,13.0,7.0,-100.00,ENE,61,1.0,7.0,76,0.00,,,0.10,0.000000,,2013-01-13 05:42:00,
2013-01-12 23:02:00,13.0,7.0,-100.00,ENE,61,1.0,7.0,76,0.00,,,0.10,0.000000,,2013-01-13 06:02:00,
2013-01-12 23:12:00,13.0,7.0,-100.00,ENE,61,1.0,7.0,76,0.00,,,0.10,0.000000,,2013-01-13 06:12:00,
2013-01-12 23:22:00,13.0,7.0,-100.00,ENE,61,1.0,7.0,76,0.00,,,0.10,0.000000,,2013-01-13 06:22:00,
2013-01-12 23:32:00,13.0,7.0,-100.00,ENE,61,1.0,7.0,76,0.00,,,0.10,0.000000,,2013-01-13 06:32:00,